Dades meteomassalio
Diari Summary for Juliol 19, 2017 Units:  English    Metric   Both
« Previous Day
Next Day »
Diari Semanal Mensual Anual Personalitzat
  Maxima: Minima: Mijana:
Temperatura: TemperatureC °F 20.9 °F 27.1 °F
Rosada: DewpointC °F 11.8 °F 16.9 °F
Humitat: Humidity % 28 % 55 %
Velocitat del vent: WindSpeedKMH mph 0.0 mph 10.3 mph
Racha vent: WindSpeedGustKMH mph - -
Vent:- - ESE
Pressio: PressurehPa in 1007.7 in -
Pluja: 0.0 in    
Historical Graphs
 
 
Tabular Data for Juliol 19, 2017
Time Temperature Dew Point Pressure Wind Wind Speed Wind Gust Humidity Rainfall Rate (Hourly) solar Conditions
TemperatureC °F DewpointC °F PressurehPa in Calm     Humidity % HourlyPrecipMM in SolarRadiationWatts/m^2 W/m2 Conditions
00:05 24.6 °F 18.3 °F 1012.8 in SE 18.5 mph 18.5 mph 68 % 0.0 in 0.0 W/m2 CLR
00:10 24.5 °F 18.2 °F 1013.1 in SE 18.5 mph 18.5 mph 68 % 0.0 in 0.0 W/m2 CLR
00:15 24.6 °F 18.3 °F 1013.1 in SSE 14.8 mph 14.8 mph 68 % 0.0 in 0.0 W/m2 CLR
00:20 24.7 °F 18.4 °F 1013.1 in SSE 16.7 mph 16.7 mph 68 % 0.0 in 0.0 W/m2 CLR
00:25 24.7 °F 17.9 °F 1013.4 in South 16.1 mph 16.1 mph 66 % 0.0 in 0.0 W/m2 CLR
00:30 24.8 °F 18.0 °F 1013.4 in South 11.1 mph 11.1 mph 66 % 0.0 in 0.0 W/m2 CLR
00:35 24.8 °F 18.1 °F 1013.4 in Calm     66 % 0.0 in 0.0 W/m2 CLR
00:40 24.8 °F 17.8 °F 1013.4 in Calm     65 % 0.0 in 0.0 W/m2 CLR
00:45 24.8 °F 17.8 °F 1013.4 in Calm     65 % 0.0 in 0.0 W/m2 CLR
00:50 24.8 °F 18.1 °F 1013.4 in Calm     66 % 0.0 in 0.0 W/m2 CLR
00:55 24.7 °F 18.2 °F 1013.4 in Calm     67 % 0.0 in 0.0 W/m2 CLR
01:00 24.6 °F 18.3 °F 1013.4 in Calm     68 % 0.0 in 0.0 W/m2 CLR
01:05 24.4 °F 18.4 °F 1013.4 in Calm     69 % 0.0 in 0.0 W/m2 CLR
01:10 24.3 °F 18.7 °F 1013.1 in ENE 4.8 mph 4.8 mph 71 % 0.0 in 0.0 W/m2 CLR
01:15 24.2 °F 18.8 °F 1012.8 in ENE 7.4 mph 7.4 mph 72 % 0.0 in 0.0 W/m2 CLR
01:20 24.1 °F 18.9 °F 1013.1 in Calm     73 % 0.0 in 0.0 W/m2 CLR
01:25 24.1 °F 18.9 °F 1012.8 in Calm     73 % 0.0 in 0.0 W/m2 CLR
01:26 24.1 °F 18.9 °F 1012.8 in Calm     73 % 0.0 in 0.0 W/m2 CLR
01:31 24.1 °F 18.9 °F 1013.1 in Calm     73 % 0.0 in 0.0 W/m2 CLR
01:36 24.0 °F 18.8 °F 1013.1 in Calm     73 % 0.0 in 0.0 W/m2 CLR
01:41 24.1 °F 18.7 °F 1012.8 in SE 11.1 mph 11.1 mph 72 % 0.0 in 0.0 W/m2 CLR
01:46 24.1 °F 18.7 °F 1013.1 in SE 7.4 mph 7.4 mph 72 % 0.0 in 0.0 W/m2 CLR
01:51 24.1 °F 18.7 °F 1013.1 in Calm     72 % 0.0 in 0.0 W/m2 CLR
01:56 24.0 °F 18.7 °F 1012.8 in Calm     72 % 0.0 in 0.0 W/m2 CLR
02:01 24.0 °F 18.7 °F 1012.8 in Calm     72 % 0.0 in 0.0 W/m2 CLR
02:06 24.0 °F 18.4 °F 1012.8 in Calm     71 % 0.0 in 0.0 W/m2 CLR
02:11 23.8 °F 18.5 °F 1012.8 in Calm     72 % 0.0 in 0.0 W/m2 CLR
02:16 23.8 °F 18.4 °F 1013.1 in Calm     72 % 0.0 in 0.0 W/m2 CLR
02:21 23.7 °F 18.4 °F 1012.8 in Calm     72 % 0.0 in 0.0 W/m2 CLR
02:26 23.7 °F 18.4 °F 1012.8 in Calm     72 % 0.0 in 0.0 W/m2 CLR
02:27 23.7 °F 18.4 °F 1012.8 in Calm     72 % 0.0 in 0.0 W/m2 CLR
02:32 23.7 °F 18.3 °F 1012.8 in Calm     72 % 0.0 in 0.0 W/m2 CLR
02:37 23.7 °F 18.2 °F 1012.8 in Calm     71 % 0.0 in 0.0 W/m2 CLR
02:42 23.7 °F 18.1 °F 1012.8 in Calm     71 % 0.0 in 0.0 W/m2 CLR
02:47 23.4 °F 18.3 °F 1012.4 in Calm     73 % 0.0 in 0.0 W/m2 CLR
02:52 23.2 °F 18.1 °F 1012.4 in Calm     73 % 0.0 in 0.0 W/m2 CLR
02:57 23.1 °F 18.2 °F 1012.4 in Calm     74 % 0.0 in 0.0 W/m2 CLR
03:02 23.1 °F 18.2 °F 1012.4 in Calm     74 % 0.0 in 0.0 W/m2 CLR
03:07 22.9 °F 18.3 °F 1012.4 in Calm     75 % 0.0 in 0.0 W/m2 CLR
03:12 22.8 °F 18.3 °F 1012.1 in Calm     76 % 0.0 in 0.0 W/m2 CLR
03:17 22.7 °F 18.4 °F 1012.1 in Calm     77 % 0.0 in 0.0 W/m2 CLR
03:22 22.6 °F 18.3 °F 1012.1 in Calm     77 % 0.0 in 0.0 W/m2 CLR
03:27 22.6 °F 18.3 °F 1012.1 in Calm     77 % 0.0 in 0.0 W/m2 CLR
03:32 22.6 °F 18.3 °F 1012.1 in Calm     77 % 0.0 in 0.0 W/m2 CLR
03:37 22.6 °F 18.3 °F 1012.1 in Calm     77 % 0.0 in 0.0 W/m2 CLR
03:42 22.4 °F 18.0 °F 1012.1 in Calm     76 % 0.0 in 0.0 W/m2 CLR
03:47 22.5 °F 17.8 °F 1011.7 in Calm     75 % 0.0 in 0.0 W/m2 CLR
03:52 22.6 °F 17.9 °F 1011.7 in Calm     75 % 0.0 in 0.0 W/m2 CLR
03:57 22.4 °F 17.7 °F 1011.7 in Calm     75 % 0.0 in 0.0 W/m2 CLR
04:02 22.2 °F 17.4 °F 1011.7 in Calm     74 % 0.0 in 0.0 W/m2 CLR
04:07 22.1 °F 17.4 °F 1011.7 in Calm     75 % 0.0 in 0.0 W/m2 CLR
04:12 22.0 °F 17.4 °F 1011.7 in Calm     75 % 0.0 in 0.0 W/m2 CLR
04:17 21.8 °F 17.2 °F 1011.7 in Calm     75 % 0.0 in 0.0 W/m2 CLR
04:22 21.8 °F 17.3 °F 1011.7 in Calm     76 % 0.0 in 0.0 W/m2 CLR
04:27 21.6 °F 17.2 °F 1011.4 in Calm     76 % 0.0 in 0.0 W/m2 CLR
04:32 21.4 °F 17.0 °F 1011.4 in Calm     76 % 0.0 in 0.0 W/m2 CLR
04:37 21.2 °F 16.8 °F 1011.4 in Calm     76 % 0.0 in 0.0 W/m2 CLR
04:42 21.2 °F 17.0 °F 1011.7 in Calm     77 % 0.0 in 0.0 W/m2 CLR
04:47 21.1 °F 16.9 °F 1011.7 in Calm     77 % 0.0 in 0.0 W/m2 CLR
04:52 21.1 °F 16.9 °F 1011.7 in Calm     77 % 0.0 in 0.0 W/m2 CLR
04:57 21.2 °F 16.3 °F 1012.1 in Calm     74 % 0.0 in 0.0 W/m2 CLR
05:02 21.4 °F 16.3 °F 1012.1 in Calm     73 % 0.0 in 0.0 W/m2 CLR
05:07 21.6 °F 16.6 °F 1012.1 in Calm     73 % 0.0 in 0.0 W/m2 CLR
05:12 21.6 °F 16.8 °F 1012.1 in Calm     74 % 0.0 in 0.0 W/m2 CLR
05:13 21.6 °F 16.8 °F 1012.1 in Calm     74 % 0.0 in 0.0 W/m2 CLR
05:18 21.4 °F 16.6 °F 1012.1 in Calm     74 % 0.0 in 0.0 W/m2 CLR
05:23 21.3 °F 16.7 °F 1012.8 in Calm     75 % 0.0 in 0.0 W/m2 CLR
05:28 21.1 °F 16.7 °F 1012.8 in Calm     76 % 0.0 in 0.0 W/m2 CLR
05:33 21.0 °F 16.4 °F 1012.8 in Calm     75 % 0.0 in 0.0 W/m2 CLR
05:38 21.1 °F 16.7 °F 1012.8 in Calm     76 % 0.0 in 0.0 W/m2 CLR
05:43 21.1 °F 16.4 °F 1012.8 in Calm     75 % 0.0 in 0.0 W/m2 CLR
05:48 21.1 °F 16.0 °F 1012.8 in ENE 3.7 mph 3.7 mph 73 % 0.0 in 0.0 W/m2 CLR
05:53 21.2 °F 15.8 °F 1012.4 in Calm     71 % 0.0 in 0.0 W/m2 CLR
05:58 21.1 °F 15.9 °F 1012.1 in NNE 5.6 mph 5.6 mph 72 % 0.0 in 0.0 W/m2 CLR
06:03 20.9 °F 15.4 °F 1012.1 in NNE 13.0 mph 13.0 mph 71 % 0.0 in 0.0 W/m2 CLR
06:08 20.9 °F 13.6 °F 1012.4 in North 14.8 mph 14.8 mph 63 % 0.0 in 0.0 W/m2 CLR
06:13 21.6 °F 13.8 °F 1012.4 in Calm     61 % 0.0 in 0.0 W/m2 CLR
06:18 21.9 °F 13.3 °F 1012.4 in Calm     58 % 0.0 in 0.0 W/m2 CLR
06:23 21.9 °F 14.3 °F 1012.4 in Calm     62 % 0.0 in 0.0 W/m2 CLR
06:28 21.8 °F 13.7 °F 1012.8 in Calm     60 % 0.0 in 0.0 W/m2 CLR
06:33 21.7 °F 13.6 °F 1012.4 in Calm     60 % 0.0 in 0.0 W/m2 OVC
06:38 21.8 °F 12.1 °F 1012.4 in Calm     54 % 0.0 in 0.0 W/m2 OVC
06:43 22.0 °F 12.6 °F 1012.1 in Calm     55 % 0.0 in 0.0 W/m2 OVC
06:48 22.1 °F 13.4 °F 1012.4 in Calm     58 % 0.0 in 0.0 W/m2 OVC
06:53 21.9 °F 14.3 °F 1012.4 in Calm     62 % 0.0 in 0.0 W/m2 OVC
06:58 21.8 °F 14.4 °F 1012.4 in Calm     63 % 0.0 in 0.0 W/m2 OVC
07:03 21.7 °F 13.3 °F 1011.7 in East 5.6 mph 5.6 mph 59 % 0.0 in 0.0 W/m2 OVC
07:08 21.9 °F 14.1 °F 1011.7 in Calm     61 % 0.0 in 5.0 W/m2 OVC
07:14 22.1 °F 13.4 °F 1011.7 in Calm     58 % 0.0 in 11.0 W/m2 BKN
07:19 22.4 °F 13.2 °F 1012.1 in Calm   1.0 mph 56 % 0.0 in 18.0 W/m2 BKN
07:24 23.1 °F 13.6 °F 1012.1 in South 11.1 mph 11.1 mph 55 % 0.0 in 32.0 W/m2 BKN
07:29 23.7 °F 13.8 °F 1012.1 in SSE 5.6 mph   54 % 0.0 in 40.0 W/m2 BKN
07:34 23.9 °F 14.1 °F 1012.1 in ESE 5.6 mph 5.6 mph 54 % 0.0 in 35.0 W/m2 BKN
07:39 24.1 °F 14.2 °F 1012.1 in Calm     54 % 0.0 in 35.0 W/m2 BKN
07:44 24.1 °F 14.2 °F 1012.1 in SSE 8.0 mph 8.0 mph 54 % 0.0 in 33.0 W/m2 BKN
07:49 24.3 °F 14.1 °F 1012.1 in SE 18.5 mph 18.5 mph 53 % 0.0 in 26.0 W/m2 BKN
07:54 24.6 °F 14.1 °F 1012.1 in SSE 18.5 mph 18.5 mph 52 % 0.0 in 23.0 W/m2 BKN
07:59 24.7 °F 14.2 °F 1012.1 in SSE 13.0 mph 13.0 mph 52 % 0.0 in 21.0 W/m2 BKN
08:04 24.7 °F 13.9 °F 1012.1 in SSE 12.9 mph 12.9 mph 51 % 0.0 in 21.0 W/m2 BKN
08:09 24.8 °F 13.9 °F 1012.1 in SSE 18.5 mph 18.5 mph 51 % 0.0 in 21.0 W/m2 BKN
08:14 24.8 °F 13.7 °F 1012.1 in NNE 8.0 mph 8.0 mph 50 % 0.0 in 25.0 W/m2 BKN
08:19 24.6 °F 14.4 °F 1012.4 in North 13.0 mph 13.0 mph 53 % 0.0 in 28.0 W/m2 BKN
08:24 24.5 °F 14.3 °F 1012.8 in North 7.4 mph 7.4 mph 53 % 0.0 in 40.0 W/m2 BKN
08:29 24.6 °F 14.4 °F 1012.4 in Calm     53 % 0.0 in 54.0 W/m2 BKN
08:34 24.6 °F 15.2 °F 1012.4 in NNE 11.3 mph 11.3 mph 56 % 0.0 in 79.0 W/m2 SCT
08:39 24.4 °F 16.9 °F 1012.1 in ENE 14.8 mph 14.8 mph 63 % 0.0 in 100.0 W/m2 FEW
08:44 24.2 °F 17.2 °F 1012.1 in ENE 9.3 mph 9.3 mph 65 % 0.0 in 135.0 W/m2 CLR
08:49 24.2 °F 17.2 °F 1012.1 in Calm     65 % 0.0 in 149.0 W/m2 CLR
08:54 24.3 °F 17.6 °F 1012.1 in Calm     66 % 0.0 in 213.0 W/m2 CLR
08:59 24.5 °F 17.7 °F 1012.1 in Calm     66 % 0.0 in 148.0 W/m2 CLR
09:04 24.6 °F 17.6 °F 1012.1 in Calm     65 % 0.0 in 156.0 W/m2 CLR
09:09 24.7 °F 17.4 °F 1012.1 in SE 1.9 mph 1.9 mph 64 % 0.0 in 130.0 W/m2 CLR
09:14 24.8 °F 17.3 °F 1012.1 in SE 11.3 mph 11.3 mph 63 % 0.0 in 120.0 W/m2 CLR
09:19 24.9 °F 17.4 °F 1012.1 in SSE 11.3 mph 11.3 mph 63 % 0.0 in 165.0 W/m2 CLR
09:24 25.1 °F 17.5 °F 1011.7 in ESE 11.1 mph 11.1 mph 63 % 0.0 in 193.0 W/m2 CLR
09:29 25.2 °F 17.7 °F 1011.4 in ESE 18.5 mph 18.5 mph 63 % 0.0 in 374.0 W/m2 CLR
09:34 25.4 °F 17.6 °F 1011.4 in SE 18.5 mph 18.5 mph 62 % 0.0 in 200.0 W/m2 CLR
09:39 25.6 °F 17.6 °F 1011.7 in SSE 11.1 mph 11.1 mph 61 % 0.0 in 230.0 W/m2 CLR
09:44 25.9 °F 17.8 °F 1011.7 in ESE 16.7 mph 16.7 mph 61 % 0.0 in 473.0 W/m2 CLR
09:49 26.1 °F 18.4 °F 1011.7 in SSE 13.0 mph 13.0 mph 63 % 0.0 in 336.0 W/m2 CLR
09:54 25.8 °F 18.3 °F 1011.7 in East 14.8 mph 14.8 mph 63 % 0.0 in 290.0 W/m2 CLR
09:59 26.0 °F 18.2 °F 1011.7 in Calm     62 % 0.0 in 264.0 W/m2 CLR
10:04 26.2 °F 18.1 °F 1011.7 in Calm     61 % 0.0 in 290.0 W/m2 CLR
10:09 26.6 °F 17.9 °F 1011.7 in SE 8.0 mph 8.0 mph 59 % 0.0 in 427.0 W/m2 CLR
10:14 27.2 °F 17.3 °F 1011.7 in SSE 18.5 mph 18.5 mph 55 % 0.0 in 503.0 W/m2 CLR
10:19 27.4 °F 17.3 °F 1011.4 in SE 18.5 mph 18.5 mph 54 % 0.0 in 575.0 W/m2 CLR
10:24 27.6 °F 17.1 °F 1011.4 in SSE 22.2 mph 22.2 mph 53 % 0.0 in 443.0 W/m2 CLR
10:29 27.7 °F 17.3 °F 1011.4 in South 18.5 mph 18.5 mph 53 % 0.0 in 499.0 W/m2 CLR
10:34 27.8 °F 17.7 °F 1011.4 in SE 13.0 mph 13.0 mph 54 % 0.0 in 570.0 W/m2 CLR
10:39 28.1 °F 17.6 °F 1011.4 in ESE 9.7 mph 9.7 mph 53 % 0.0 in 640.0 W/m2 CLR
10:44 28.4 °F 17.9 °F 1011.4 in East 4.8 mph 4.8 mph 53 % 0.0 in 664.0 W/m2 CLR
10:49 28.8 °F 17.6 °F 1011.4 in ESE 5.6 mph 5.6 mph 51 % 0.0 in 663.0 W/m2 CLR
10:54 29.1 °F 16.9 °F 1011.4 in SE 13.0 mph 13.0 mph 48 % 0.0 in 701.0 W/m2 CLR
10:59 29.5 °F 17.0 °F 1011.4 in South 5.6 mph   47 % 0.0 in 668.0 W/m2 CLR
11:04 29.8 °F 16.9 °F 1011.4 in SE 5.6 mph 5.6 mph 46 % 0.0 in 570.0 W/m2 CLR
11:09 30.0 °F 16.8 °F 1011.4 in SE 8.0 mph 8.0 mph 45 % 0.0 in 573.0 W/m2 CLR
11:14 30.2 °F 16.3 °F 1011.4 in Calm     43 % 0.0 in 724.0 W/m2 CLR
11:19 30.4 °F 16.1 °F 1011.1 in SSE 5.6 mph 5.6 mph 42 % 0.0 in 547.0 W/m2 CLR
11:24 30.6 °F 16.6 °F 1011.1 in ENE 5.6 mph 5.6 mph 43 % 0.0 in 573.0 W/m2 CLR
11:29 30.9 °F 16.5 °F 1011.1 in ENE 4.8 mph 4.8 mph 42 % 0.0 in 645.0 W/m2 CLR
11:34 31.2 °F 15.9 °F 1011.1 in ENE 5.6 mph 5.6 mph 40 % 0.0 in 715.0 W/m2 CLR
11:39 31.3 °F 17.6 °F 1011.1 in NE 7.4 mph 10.8 mph 44 % 0.0 in 524.0 W/m2 CLR
11:44 31.2 °F 17.1 °F 1011.1 in NE 14.8 mph 14.8 mph 43 % 0.0 in 450.0 W/m2 CLR
11:49 30.9 °F 17.2 °F 1011.1 in ENE 14.8 mph 14.8 mph 44 % 0.0 in 452.0 W/m2 CLR
11:54 30.8 °F 17.5 °F 1011.1 in NE 14.5 mph 14.5 mph 45 % 0.0 in 457.0 W/m2 CLR
12:05 30.8 °F 17.5 °F 1011.1 in NE 13.0 mph 13.0 mph 45 % 0.0 in 506.0 W/m2 CLR
12:09 30.9 °F 17.9 °F 1011.1 in NE 11.1 mph 11.1 mph 46 % 0.0 in 594.0 W/m2 CLR
12:15 31.0 °F 18.4 °F 1011.1 in NE 16.7 mph 16.7 mph 47 % 0.0 in 561.0 W/m2 CLR
12:20 30.8 °F 17.8 °F 1011.1 in NE 14.8 mph 14.8 mph 46 % 0.0 in 499.0 W/m2 CLR
12:25 31.0 °F 16.6 °F 1010.7 in ESE 16.7 mph 16.7 mph 42 % 0.0 in 912.0 W/m2 CLR
12:30 31.6 °F 17.1 °F 1010.7 in ESE 20.9 mph 20.9 mph 42 % 0.0 in 555.0 W/m2 CLR
12:35 31.3 °F 17.6 °F 1010.7 in ENE 24.1 mph 24.1 mph 44 % 0.0 in 939.0 W/m2 CLR
12:40 31.1 °F 17.4 °F 1010.7 in East 22.2 mph 22.2 mph 44 % 0.0 in 496.0 W/m2 CLR
12:45 31.5 °F 17.4 °F 1010.7 in ESE 27.8 mph 27.8 mph 43 % 0.0 in 534.0 W/m2 CLR
12:50 31.6 °F 16.7 °F 1010.7 in ESE 24.1 mph 24.1 mph 41 % 0.0 in 735.0 W/m2 CLR
12:55 31.8 °F 17.3 °F 1010.7 in East 22.2 mph 22.2 mph 42 % 0.0 in 965.0 W/m2 CLR
13:00 31.9 °F 16.2 °F 1010.7 in ESE 11.1 mph 11.1 mph 39 % 0.0 in 798.0 W/m2 CLR
13:05 32.3 °F 12.0 °F 1010.7 in SSE 29.6 mph 29.6 mph 29 % 0.0 in 960.0 W/m2 CLR
13:10 32.7 °F 11.8 °F 1010.7 in SSE 24.1 mph 24.1 mph 28 % 0.0 in 912.0 W/m2 CLR
13:15 33.1 °F 12.1 °F 1010.7 in SSE 35.2 mph 35.2 mph 28 % 0.0 in 905.0 W/m2 CLR
13:20 32.7 °F 12.3 °F 1010.7 in SSW 24.1 mph 24.1 mph 29 % 0.0 in 904.0 W/m2 CLR
13:25 32.6 °F 12.8 °F 1010.7 in SSE 30.6 mph 30.6 mph 30 % 0.0 in 900.0 W/m2 CLR
13:30 32.4 °F 12.6 °F 1011.1 in SE 18.5 mph 18.5 mph 30 % 0.0 in 905.0 W/m2 CLR
13:35 32.7 °F 12.8 °F 1010.7 in SSE 22.2 mph 22.2 mph 30 % 0.0 in 905.0 W/m2 CLR
13:36 32.7 °F 12.8 °F 1010.7 in South 18.5 mph 18.5 mph 30 % 0.0 in 909.0 W/m2 CLR
13:41 32.7 °F 12.9 °F 1010.7 in SSW 24.1 mph 24.1 mph 30 % 0.0 in 900.0 W/m2 CLR
13:46 32.6 °F 15.6 °F 1010.7 in SSE 25.9 mph 25.9 mph 36 % 0.0 in 909.0 W/m2 CLR
13:51 32.6 °F 13.3 °F 1010.7 in SE 22.2 mph 22.2 mph 31 % 0.0 in 911.0 W/m2 CLR
13:56 32.8 °F 16.6 °F 1010.7 in South 22.2 mph 22.2 mph 38 % 0.0 in 914.0 W/m2 CLR
14:01 32.8 °F 16.7 °F 1010.4 in South 24.1 mph 24.1 mph 38 % 0.0 in 925.0 W/m2 CLR
14:06 32.7 °F 16.9 °F 1010.4 in SSE 29.0 mph 29.0 mph 39 % 0.0 in 932.0 W/m2 CLR
14:11 32.2 °F 18.1 °F 1010.0 in SE 24.1 mph 24.1 mph 43 % 0.0 in 905.0 W/m2 CLR
14:16 32.1 °F 18.3 °F 1010.4 in ESE 29.6 mph 29.6 mph 44 % 0.0 in 867.0 W/m2 CLR
14:21 32.3 °F 18.2 °F 1010.4 in ESE 24.1 mph 24.1 mph 43 % 0.0 in 928.0 W/m2 CLR
14:26 31.8 °F 18.4 °F 1010.0 in ESE 24.1 mph 24.1 mph 45 % 0.0 in 942.0 W/m2 CLR
14:31 31.9 °F 18.5 °F 1010.0 in ESE 24.1 mph 24.1 mph 45 % 0.0 in 935.0 W/m2 CLR
14:36 32.3 °F 18.2 °F 1010.0 in East 18.5 mph 18.5 mph 43 % 0.0 in 946.0 W/m2 CLR
14:41 32.7 °F 18.9 °F 1010.0 in ESE 20.4 mph 20.4 mph 44 % 0.0 in 925.0 W/m2 CLR
14:42 32.8 °F 18.9 °F 1010.0 in East 20.4 mph 20.4 mph 44 % 0.0 in 923.0 W/m2 CLR
14:47 33.0 °F 15.9 °F 1010.0 in South 20.9 mph 20.9 mph 36 % 0.0 in 918.0 W/m2 CLR
14:52 33.1 °F 17.3 °F 1010.0 in ESE 16.1 mph 16.1 mph 39 % 0.0 in 937.0 W/m2 CLR
14:57 32.9 °F 16.7 °F 1009.7 in SSE 27.8 mph 27.8 mph 38 % 0.0 in 933.0 W/m2 CLR
15:02 32.9 °F 17.6 °F 1009.7 in SSE 27.8 mph 27.8 mph 40 % 0.0 in 912.0 W/m2 CLR
15:07 32.5 °F 17.2 °F 1009.7 in South 20.9 mph 20.9 mph 40 % 0.0 in 921.0 W/m2 CLR
15:12 32.4 °F 15.8 °F 1009.7 in South 25.9 mph 25.9 mph 37 % 0.0 in 919.0 W/m2 CLR
15:17 32.8 °F 15.7 °F 1009.4 in South 29.6 mph 29.6 mph 36 % 0.0 in 925.0 W/m2 CLR
15:22 32.7 °F 16.9 °F 1009.7 in SSE 18.5 mph 18.5 mph 39 % 0.0 in 960.0 W/m2 CLR
15:27 32.6 °F 16.8 °F 1009.7 in SE 27.8 mph 27.8 mph 39 % 0.0 in 896.0 W/m2 CLR
15:32 32.7 °F 16.9 °F 1009.7 in South 22.2 mph 22.2 mph 39 % 0.0 in 984.0 W/m2 CLR
15:37 32.6 °F 16.8 °F 1009.4 in SE 19.3 mph 19.3 mph 39 % 0.0 in 1000.0 W/m2 CLR
15:42 32.7 °F 16.9 °F 1009.4 in SE 31.5 mph 31.5 mph 39 % 0.0 in 974.0 W/m2 CLR
15:47 32.7 °F 16.9 °F 1009.4 in SE 24.1 mph 24.1 mph 39 % 0.0 in 974.0 W/m2 CLR
15:52 32.3 °F 16.6 °F 1009.4 in SE 27.8 mph 27.8 mph 39 % 0.0 in 243.0 W/m2 CLR
15:57 32.1 °F 16.8 °F 1009.0 in SE 25.9 mph 25.9 mph 40 % 0.0 in 250.0 W/m2 CLR
16:02 32.1 °F 16.8 °F 1009.0 in SE 16.7 mph 16.7 mph 40 % 0.0 in 229.0 W/m2 CLR
16:07 32.2 °F 16.5 °F 1009.0 in SE 25.7 mph 25.7 mph 39 % 0.0 in 353.0 W/m2 CLR
16:12 32.3 °F 16.6 °F 1009.0 in SE 25.9 mph 25.9 mph 39 % 0.0 in 381.0 W/m2 CLR
16:17 32.5 °F 16.8 °F 1009.0 in SE 13.0 mph 13.0 mph 39 % 0.0 in 712.0 W/m2 CLR
16:22 32.6 °F 16.8 °F 1009.0 in ESE 13.0 mph 13.0 mph 39 % 0.0 in 422.0 W/m2 CLR
16:27 32.7 °F 16.6 °F 1009.0 in SSE 18.5 mph 18.5 mph 38 % 0.0 in 422.0 W/m2 CLR
16:32 32.9 °F 16.3 °F 1009.0 in SE 24.1 mph 24.1 mph 37 % 0.0 in 422.0 W/m2 CLR
16:37 32.4 °F 16.3 °F 1008.7 in SE 20.9 mph 20.9 mph 38 % 0.0 in 315.0 W/m2 CLR
16:38 32.4 °F 16.2 °F 1008.7 in SE 20.4 mph 20.4 mph 38 % 0.0 in 306.0 W/m2 CLR
16:43 32.3 °F 16.2 °F 1008.7 in SE 18.5 mph 18.5 mph 38 % 0.0 in 388.0 W/m2 CLR
16:48 32.2 °F 16.1 °F 1008.7 in SE 25.9 mph 25.9 mph 38 % 0.0 in 387.0 W/m2 CLR
16:53 31.9 °F 15.8 °F 1008.7 in SE 20.4 mph 20.4 mph 38 % 0.0 in 376.0 W/m2 CLR
16:58 31.8 °F 15.8 °F 1008.7 in SSE 29.6 mph 29.6 mph 38 % 0.0 in 373.0 W/m2 CLR
17:03 32.1 °F 16.8 °F 1008.7 in SE 20.4 mph 20.4 mph 40 % 0.0 in 788.0 W/m2 CLR
17:08 31.9 °F 16.7 °F 1008.7 in ESE 20.4 mph 20.4 mph 40 % 0.0 in 381.0 W/m2 CLR
17:13 31.7 °F 16.8 °F 1008.7 in SE 18.5 mph 18.5 mph 41 % 0.0 in 434.0 W/m2 CLR
17:18 31.7 °F 16.8 °F 1008.7 in SSE 17.7 mph 17.7 mph 41 % 0.0 in 796.0 W/m2 CLR
17:23 31.8 °F 16.9 °F 1008.4 in ESE 18.5 mph 18.5 mph 41 % 0.0 in 362.0 W/m2 CLR
17:28 32.0 °F 16.3 °F 1008.4 in ESE 20.4 mph 20.4 mph 39 % 0.0 in 830.0 W/m2 CLR
17:33 32.2 °F 16.4 °F 1008.4 in ESE 20.4 mph 20.4 mph 39 % 0.0 in 824.0 W/m2 CLR
17:38 32.2 °F 16.5 °F 1008.4 in ESE 25.9 mph 25.9 mph 39 % 0.0 in 663.0 W/m2 CLR
17:43 31.9 °F 17.4 °F 1008.4 in East 18.5 mph 18.5 mph 42 % 0.0 in 144.0 W/m2 CLR
17:48 31.4 °F 17.7 °F 1008.4 in ESE 20.4 mph 20.4 mph 44 % 0.0 in 162.0 W/m2 CLR
17:53 31.2 °F 17.4 °F 1008.4 in ESE 20.4 mph 20.4 mph 44 % 0.0 in 192.0 W/m2 CLR
17:58 31.0 °F 17.7 °F 1008.4 in East 14.8 mph 14.8 mph 45 % 0.0 in 202.0 W/m2 CLR
18:03 30.9 °F 17.6 °F 1008.4 in ESE 14.5 mph 14.5 mph 45 % 0.0 in 216.0 W/m2 CLR
18:08 30.8 °F 17.5 °F 1008.4 in ESE 16.7 mph 16.7 mph 45 % 0.0 in 211.0 W/m2 CLR
18:13 30.7 °F 17.7 °F 1008.4 in East 14.8 mph 14.8 mph 46 % 0.0 in 220.0 W/m2 CLR
18:18 30.6 °F 17.7 °F 1008.4 in East 5.6 mph 5.6 mph 46 % 0.0 in 503.0 W/m2 CLR
18:19 30.7 °F 17.8 °F 1008.4 in ESE 13.0 mph 13.0 mph 46 % 0.0 in 394.0 W/m2 CLR
18:24 30.6 °F 18.0 °F 1008.4 in ESE 13.0 mph 13.0 mph 47 % 0.0 in 107.0 W/m2 CLR
18:25 30.6 °F 18.0 °F 1008.4 in ESE 13.0 mph 13.0 mph 47 % 0.0 in 107.0 W/m2 CLR
18:30 30.4 °F 17.8 °F 1008.4 in East 16.7 mph 16.7 mph 47 % 0.0 in 114.0 W/m2 CLR
18:35 30.4 °F 17.9 °F 1008.4 in ESE 13.0 mph 13.0 mph 47 % 0.0 in 531.0 W/m2 CLR
18:40 30.7 °F 18.1 °F 1008.0 in ESE 13.0 mph 13.0 mph 47 % 0.0 in 496.0 W/m2 CLR
18:45 30.8 °F 18.2 °F 1008.0 in ESE 9.7 mph 9.7 mph 47 % 0.0 in 146.0 W/m2 CLR
18:50 30.6 °F 17.9 °F 1008.0 in ESE 13.0 mph 13.0 mph 47 % 0.0 in 163.0 W/m2 CLR
18:55 30.6 °F 18.3 °F 1008.0 in East 13.0 mph 13.0 mph 48 % 0.0 in 418.0 W/m2 CLR
19:00 30.6 °F 18.0 °F 1008.0 in East 14.8 mph 14.8 mph 47 % 0.0 in 142.0 W/m2 CLR
19:05 30.6 °F 18.0 °F 1008.0 in ESE 9.3 mph 9.3 mph 47 % 0.0 in 146.0 W/m2 CLR
19:10 30.4 °F 17.9 °F 1008.0 in East 13.0 mph 13.0 mph 47 % 0.0 in 183.0 W/m2 CLR
19:15 30.3 °F 17.7 °F 1007.7 in ESE 9.3 mph 9.3 mph 47 % 0.0 in 311.0 W/m2 CLR
19:20 30.7 °F 16.7 °F 1007.7 in East 8.0 mph 8.0 mph 43 % 0.0 in 90.0 W/m2 CLR
19:25 30.9 °F 17.3 °F 1007.7 in ESE 17.7 mph 17.7 mph 44 % 0.0 in 91.0 W/m2 CLR
19:30 30.4 °F 17.1 °F 1007.7 in SE 22.2 mph 22.2 mph 45 % 0.0 in 70.0 W/m2 CLR
19:35 30.2 °F 17.3 °F 1007.7 in ESE 13.0 mph 13.0 mph 46 % 0.0 in 67.0 W/m2 FEW
19:40 30.2 °F 17.3 °F 1007.7 in East 14.8 mph 14.8 mph 46 % 0.0 in 56.0 W/m2 FEW
19:45 30.1 °F 17.6 °F 1007.7 in SE 5.6 mph 5.6 mph 47 % 0.0 in 60.0 W/m2 FEW
19:50 30.0 °F 17.4 °F 1007.7 in ESE 16.7 mph 16.7 mph 47 % 0.0 in 54.0 W/m2 SCT
19:55 29.9 °F 17.3 °F 1007.7 in ESE 14.8 mph 14.8 mph 47 % 0.0 in 40.0 W/m2 SCT
20:00 29.8 °F 17.3 °F 1007.7 in ESE 9.3 mph 9.3 mph 47 % 0.0 in 30.0 W/m2 BKN
20:05 29.7 °F 17.5 °F 1007.7 in SE 14.8 mph 14.8 mph 48 % 0.0 in 25.0 W/m2 BKN
20:10 29.4 °F 17.6 °F 1008.0 in ESE 9.3 mph 9.3 mph 49 % 0.0 in 26.0 W/m2 BKN
20:15 29.3 °F 17.4 °F 1008.0 in SE 13.0 mph 13.0 mph 49 % 0.0 in 33.0 W/m2 BKN
20:20 29.2 °F 17.3 °F 1007.7 in ESE 16.7 mph 16.7 mph 49 % 0.0 in 60.0 W/m2 BKN
20:25 29.0 °F 17.5 °F 1008.0 in SE 14.8 mph 14.8 mph 50 % 0.0 in 74.0 W/m2 SCT
20:30 28.8 °F 17.4 °F 1008.0 in ESE 13.0 mph 13.0 mph 50 % 0.0 in 67.0 W/m2 FEW
20:35 28.7 °F 17.6 °F 1008.0 in Calm     51 % 0.0 in 47.0 W/m2 SCT
20:40 28.6 °F 17.8 °F 1008.0 in East 11.1 mph 11.1 mph 52 % 0.0 in 42.0 W/m2 BKN
20:45 28.5 °F 17.7 °F 1008.0 in East 9.7 mph 9.7 mph 52 % 0.0 in 49.0 W/m2 SCT
20:50 28.3 °F 17.8 °F 1008.0 in East 13.0 mph 13.0 mph 53 % 0.0 in 33.0 W/m2 BKN
20:55 28.1 °F 17.9 °F 1008.0 in SE 16.7 mph 16.7 mph 54 % 0.0 in 23.0 W/m2 BKN
21:00 27.9 °F 17.8 °F 1008.0 in SE 14.5 mph 14.5 mph 54 % 0.0 in 21.0 W/m2 BKN
21:05 27.8 °F 17.9 °F 1008.0 in ESE 16.7 mph 16.7 mph 55 % 0.0 in 18.0 W/m2 BKN
21:10 27.6 °F 18.1 °F 1008.0 in SE 11.1 mph 11.1 mph 56 % 0.0 in 14.0 W/m2 BKN
21:15 27.5 °F 18.2 °F 1008.0 in ESE 9.7 mph 9.7 mph 57 % 0.0 in 11.0 W/m2 BKN
21:20 27.4 °F 18.1 °F 1008.0 in ENE 9.3 mph 9.3 mph 57 % 0.0 in 5.0 W/m2 OVC
21:25 27.2 °F 18.2 °F 1008.0 in Calm     58 % 0.0 in 0.0 W/m2 OVC
21:30 27.1 °F 18.3 °F 1008.0 in Calm     59 % 0.0 in 0.0 W/m2 OVC
21:35 26.8 °F 18.4 °F 1008.0 in East 5.6 mph 5.6 mph 60 % 0.0 in 0.0 W/m2 OVC
21:40 26.7 °F 18.6 °F 1008.4 in Calm     61 % 0.0 in 0.0 W/m2 CLR
21:45 26.6 °F 18.4 °F 1008.0 in ESE 11.1 mph 11.1 mph 61 % 0.0 in 0.0 W/m2 CLR
21:50 26.4 °F 18.6 °F 1008.0 in SE 16.7 mph 16.7 mph 62 % 0.0 in 0.0 W/m2 CLR
21:55 26.3 °F 18.4 °F 1008.4 in ESE 11.1 mph 11.1 mph 62 % 0.0 in 0.0 W/m2 CLR
22:00 26.3 °F 18.4 °F 1008.4 in East 5.6 mph   62 % 0.0 in 0.0 W/m2 CLR
22:05 26.4 °F 18.3 °F 1008.4 in East 7.4 mph 7.4 mph 61 % 0.0 in 0.0 W/m2 CLR
22:10 26.3 °F 18.4 °F 1008.4 in ESE 7.4 mph 7.4 mph 62 % 0.0 in 0.0 W/m2 CLR
22:15 26.3 °F 18.4 °F 1008.4 in ESE 14.8 mph 14.8 mph 62 % 0.0 in 0.0 W/m2 CLR
22:20 26.2 °F 18.3 °F 1008.4 in SE 5.6 mph 5.6 mph 62 % 0.0 in 0.0 W/m2 CLR
22:25 26.2 °F 18.3 °F 1008.4 in SE 12.9 mph 12.9 mph 62 % 0.0 in 0.0 W/m2 CLR
22:30 26.2 °F 18.3 °F 1008.4 in SE 14.8 mph 14.8 mph 62 % 0.0 in 0.0 W/m2 CLR
22:35 26.1 °F 18.3 °F 1008.4 in SSE 9.3 mph 9.3 mph 62 % 0.0 in 0.0 W/m2 CLR
22:40 26.2 °F 18.1 °F 1008.4 in ESE 5.6 mph 5.6 mph 61 % 0.0 in 0.0 W/m2 CLR
22:45 26.2 °F 18.1 °F 1008.4 in East 9.3 mph 9.3 mph 61 % 0.0 in 0.0 W/m2 CLR
22:50 26.1 °F 18.2 °F 1008.7 in Calm     62 % 0.0 in 0.0 W/m2 CLR
22:55 25.9 °F 18.1 °F 1008.7 in Calm     62 % 0.0 in 0.0 W/m2 CLR
23:00 25.8 °F 18.3 °F 1008.7 in Calm     63 % 0.0 in 0.0 W/m2 CLR
23:06 25.7 °F 18.2 °F 1008.7 in Calm     63 % 0.0 in 0.0 W/m2 CLR
23:11 25.6 °F 18.3 °F 1008.7 in Calm     64 % 0.0 in 0.0 W/m2 CLR
23:16 25.5 °F 18.2 °F 1008.4 in Calm     64 % 0.0 in 0.0 W/m2 CLR
23:21 25.3 °F 18.3 °F 1008.4 in Calm     65 % 0.0 in 0.0 W/m2 CLR
23:26 25.2 °F 18.4 °F 1008.7 in ENE 1.9 mph   66 % 0.0 in 0.0 W/m2 CLR
23:31 25.1 °F 18.3 °F 1008.7 in Calm     66 % 0.0 in 0.0 W/m2 CLR
23:36 25.1 °F 18.3 °F 1008.7 in ENE 3.2 mph 3.2 mph 66 % 0.0 in 0.0 W/m2 CLR
23:41 25.1 °F 18.3 °F 1008.7 in Calm     66 % 0.0 in 0.0 W/m2 CLR
23:46 25.0 °F 18.4 °F 1008.7 in Calm     67 % 0.0 in 0.0 W/m2 CLR
23:51 24.9 °F 18.4 °F 1008.7 in Calm     67 % 0.0 in 0.0 W/m2 CLR
23:56 24.9 °F 18.6 °F 1008.7 in Calm     68 % 0.0 in 0.0 W/m2 CLR
Lo Temps de Massalio
Compliments of Weather Underground - 1.25 mb